sensor_id;sensor_type;location;lat;lon;timestamp;P1;durP1;ratioP1;P2;durP2;ratioP2
41139;SDS011;26881;48.784;9.192;2022-07-25T00:03:42;10.23;;;8.45;;
41139;SDS011;26881;48.784;9.192;2022-07-25T00:09:04;9.10;;;8.20;;
41139;SDS011;26881;48.784;9.192;2022-07-25T00:14:26;9.48;;;8.48;;
41139;SDS011;26881;48.784;9.192;2022-07-25T00:19:48;9.70;;;8.88;;
41139;SDS011;26881;48.784;9.192;2022-07-25T00:25:10;8.88;;;8.02;;
41139;SDS011;26881;48.784;9.192;2022-07-25T00:30:32;9.82;;;7.63;;
41139;SDS011;26881;48.784;9.192;2022-07-25T00:35:54;9.65;;;8.32;;
41139;SDS011;26881;48.784;9.192;2022-07-25T00:41:15;9.05;;;8.00;;
41139;SDS011;26881;48.784;9.192;2022-07-25T00:46:37;11.63;;;8.57;;
41139;SDS011;26881;48.784;9.192;2022-07-25T00:51:59;9.45;;;8.43;;
41139;SDS011;26881;48.784;9.192;2022-07-25T00:57:22;11.05;;;8.05;;
41139;SDS011;26881;48.784;9.192;2022-07-25T01:02:44;9.18;;;8.27;;
41139;SDS011;26881;48.784;9.192;2022-07-25T01:08:06;9.75;;;8.18;;
41139;SDS011;26881;48.784;9.192;2022-07-25T01:13:31;9.05;;;8.15;;
41139;SDS011;26881;48.784;9.192;2022-07-25T01:18:54;9.02;;;8.13;;
41139;SDS011;26881;48.784;9.192;2022-07-25T01:24:16;9.10;;;8.00;;
41139;SDS011;26881;48.784;9.192;2022-07-25T01:29:38;9.60;;;8.60;;
41139;SDS011;26881;48.784;9.192;2022-07-25T01:35:00;8.75;;;7.80;;
41139;SDS011;26881;48.784;9.192;2022-07-25T01:40:22;9.70;;;8.50;;
41139;SDS011;26881;48.784;9.192;2022-07-25T01:45:44;10.50;;;8.13;;
41139;SDS011;26881;48.784;9.192;2022-07-25T01:51:05;9.52;;;8.25;;
41139;SDS011;26881;48.784;9.192;2022-07-25T01:56:31;8.52;;;7.82;;
41139;SDS011;26881;48.784;9.192;2022-07-25T02:01:53;9.65;;;8.68;;
41139;SDS011;26881;48.784;9.192;2022-07-25T02:07:15;10.38;;;8.23;;
41139;SDS011;26881;48.784;9.192;2022-07-25T02:12:37;12.07;;;8.38;;
41139;SDS011;26881;48.784;9.192;2022-07-25T02:17:59;10.43;;;8.98;;
41139;SDS011;26881;48.784;9.192;2022-07-25T02:23:21;9.70;;;8.70;;
41139;SDS011;26881;48.784;9.192;2022-07-25T02:28:43;9.82;;;8.93;;
41139;SDS011;26881;48.784;9.192;2022-07-25T02:34:04;9.43;;;8.43;;
41139;SDS011;26881;48.784;9.192;2022-07-25T02:39:27;10.93;;;9.02;;
41139;SDS011;26881;48.784;9.192;2022-07-25T02:44:48;10.80;;;9.43;;
41139;SDS011;26881;48.784;9.192;2022-07-25T02:50:10;14.35;;;9.02;;
41139;SDS011;26881;48.784;9.192;2022-07-25T02:55:35;9.70;;;8.60;;
41139;SDS011;26881;48.784;9.192;2022-07-25T03:00:57;10.30;;;8.75;;
41139;SDS011;26881;48.784;9.192;2022-07-25T03:06:19;9.73;;;8.77;;
41139;SDS011;26881;48.784;9.192;2022-07-25T03:11:40;10.02;;;9.02;;
41139;SDS011;26881;48.784;9.192;2022-07-25T03:17:02;9.63;;;8.50;;
41139;SDS011;26881;48.784;9.192;2022-07-25T03:22:24;10.02;;;8.98;;
41139;SDS011;26881;48.784;9.192;2022-07-25T03:27:46;9.15;;;8.25;;
41139;SDS011;26881;48.784;9.192;2022-07-25T03:33:08;11.27;;;8.00;;
41139;SDS011;26881;48.784;9.192;2022-07-25T03:38:30;9.05;;;8.13;;
41139;SDS011;26881;48.784;9.192;2022-07-25T03:43:52;8.45;;;7.55;;
41139;SDS011;26881;48.784;9.192;2022-07-25T03:49:14;9.65;;;7.35;;
41139;SDS011;26881;48.784;9.192;2022-07-25T03:54:36;8.65;;;7.10;;
41139;SDS011;26881;48.784;9.192;2022-07-25T03:59:58;9.18;;;7.75;;
41139;SDS011;26881;48.784;9.192;2022-07-25T04:05:20;9.10;;;8.25;;
41139;SDS011;26881;48.784;9.192;2022-07-25T04:10:41;8.80;;;8.00;;
41139;SDS011;26881;48.784;9.192;2022-07-25T04:16:03;10.65;;;8.60;;
41139;SDS011;26881;48.784;9.192;2022-07-25T04:21:25;8.75;;;7.40;;
41139;SDS011;26881;48.784;9.192;2022-07-25T04:26:47;10.77;;;8.00;;
41139;SDS011;26881;48.784;9.192;2022-07-25T04:32:09;8.60;;;7.80;;
41139;SDS011;26881;48.784;9.192;2022-07-25T04:37:31;8.27;;;7.47;;
41139;SDS011;26881;48.784;9.192;2022-07-25T04:42:53;11.15;;;8.25;;
41139;SDS011;26881;48.784;9.192;2022-07-25T04:48:15;9.00;;;8.20;;
41139;SDS011;26881;48.784;9.192;2022-07-25T04:53:37;9.27;;;8.18;;
41139;SDS011;26881;48.784;9.192;2022-07-25T04:58:59;10.63;;;8.20;;
41139;SDS011;26881;48.784;9.192;2022-07-25T05:04:27;10.57;;;7.88;;
41139;SDS011;26881;48.784;9.192;2022-07-25T05:09:49;8.95;;;8.05;;
41139;SDS011;26881;48.784;9.192;2022-07-25T05:15:11;12.30;;;8.80;;
41139;SDS011;26881;48.784;9.192;2022-07-25T05:20:33;8.98;;;7.68;;
41139;SDS011;26881;48.784;9.192;2022-07-25T05:25:54;8.90;;;8.07;;
41139;SDS011;26881;48.784;9.192;2022-07-25T05:31:16;11.70;;;9.20;;
41139;SDS011;26881;48.784;9.192;2022-07-25T05:36:39;9.32;;;8.43;;
41139;SDS011;26881;48.784;9.192;2022-07-25T05:42:07;11.13;;;8.40;;
41139;SDS011;26881;48.784;9.192;2022-07-25T05:47:29;9.40;;;8.43;;
41139;SDS011;26881;48.784;9.192;2022-07-25T05:52:51;9.93;;;9.02;;
41139;SDS011;26881;48.784;9.192;2022-07-25T05:58:13;12.13;;;10.00;;
41139;SDS011;26881;48.784;9.192;2022-07-25T06:03:34;16.30;;;10.35;;
41139;SDS011;26881;48.784;9.192;2022-07-25T06:08:56;11.43;;;10.10;;
41139;SDS011;26881;48.784;9.192;2022-07-25T06:14:20;12.32;;;10.20;;
41139;SDS011;26881;48.784;9.192;2022-07-25T06:19:43;10.20;;;9.07;;
41139;SDS011;26881;48.784;9.192;2022-07-25T06:25:05;12.65;;;9.45;;
41139;SDS011;26881;48.784;9.192;2022-07-25T06:30:27;11.95;;;9.05;;
41139;SDS011;26881;48.784;9.192;2022-07-25T06:35:49;26.45;;;21.15;;
41139;SDS011;26881;48.784;9.192;2022-07-25T06:41:14;31.00;;;27.70;;
41139;SDS011;26881;48.784;9.192;2022-07-25T06:46:36;17.25;;;13.80;;
41139;SDS011;26881;48.784;9.192;2022-07-25T06:51:58;17.92;;;12.95;;
41139;SDS011;26881;48.784;9.192;2022-07-25T06:57:20;14.27;;;9.30;;
41139;SDS011;26881;48.784;9.192;2022-07-25T07:02:55;14.20;;;9.32;;
41139;SDS011;26881;48.784;9.192;2022-07-25T07:08:22;11.88;;;8.55;;
41139;SDS011;26881;48.784;9.192;2022-07-25T07:13:43;10.30;;;8.32;;
41139;SDS011;26881;48.784;9.192;2022-07-25T07:19:05;13.52;;;8.68;;
41139;SDS011;26881;48.784;9.192;2022-07-25T07:24:28;11.45;;;8.10;;
41139;SDS011;26881;48.784;9.192;2022-07-25T07:29:50;12.05;;;8.88;;
41139;SDS011;26881;48.784;9.192;2022-07-25T07:35:12;9.82;;;7.53;;
41139;SDS011;26881;48.784;9.192;2022-07-25T07:40:36;10.25;;;8.57;;
41139;SDS011;26881;48.784;9.192;2022-07-25T07:45:58;9.60;;;8.35;;
41139;SDS011;26881;48.784;9.192;2022-07-25T07:51:21;9.13;;;8.32;;
41139;SDS011;26881;48.784;9.192;2022-07-25T07:56:43;8.82;;;8.02;;
41139;SDS011;26881;48.784;9.192;2022-07-25T08:02:06;8.70;;;7.97;;
41139;SDS011;26881;48.784;9.192;2022-07-25T08:07:28;9.02;;;8.23;;
41139;SDS011;26881;48.784;9.192;2022-07-25T08:12:50;8.48;;;7.68;;
41139;SDS011;26881;48.784;9.192;2022-07-25T08:18:12;8.50;;;7.75;;
41139;SDS011;26881;48.784;9.192;2022-07-25T08:23:38;8.23;;;7.20;;
41139;SDS011;26881;48.784;9.192;2022-07-25T08:29:00;9.02;;;7.57;;
41139;SDS011;26881;48.784;9.192;2022-07-25T08:34:39;8.60;;;7.80;;
41139;SDS011;26881;48.784;9.192;2022-07-25T08:40:01;8.68;;;7.88;;
41139;SDS011;26881;48.784;9.192;2022-07-25T08:45:25;9.05;;;8.15;;
41139;SDS011;26881;48.784;9.192;2022-07-25T08:50:48;13.15;;;11.88;;
41139;SDS011;26881;48.784;9.192;2022-07-25T08:56:11;8.10;;;7.40;;
41139;SDS011;26881;48.784;9.192;2022-07-25T09:01:41;8.82;;;7.70;;
41139;SDS011;26881;48.784;9.192;2022-07-25T09:07:03;8.40;;;7.00;;
41139;SDS011;26881;48.784;9.192;2022-07-25T09:12:28;7.70;;;7.00;;
41139;SDS011;26881;48.784;9.192;2022-07-25T09:17:50;8.23;;;7.15;;
41139;SDS011;26881;48.784;9.192;2022-07-25T09:23:35;10.00;;;7.20;;
41139;SDS011;26881;48.784;9.192;2022-07-25T09:28:58;7.30;;;6.60;;
41139;SDS011;26881;48.784;9.192;2022-07-25T09:34:55;8.02;;;6.60;;
41139;SDS011;26881;48.784;9.192;2022-07-25T09:40:11;10.65;;;6.30;;
41139;SDS011;26881;48.784;9.192;2022-07-25T09:45:35;8.10;;;6.85;;
41139;SDS011;26881;48.784;9.192;2022-07-25T09:50:58;8.68;;;6.55;;
41139;SDS011;26881;48.784;9.192;2022-07-25T09:56:20;10.07;;;6.50;;
41139;SDS011;26881;48.784;9.192;2022-07-25T10:01:47;7.55;;;6.85;;
41139;SDS011;26881;48.784;9.192;2022-07-25T10:07:15;14.10;;;7.80;;
41139;SDS011;26881;48.784;9.192;2022-07-25T10:12:41;8.52;;;7.18;;
41139;SDS011;26881;48.784;9.192;2022-07-25T10:18:03;8.00;;;7.20;;
41139;SDS011;26881;48.784;9.192;2022-07-25T10:23:27;9.10;;;7.35;;
41139;SDS011;26881;48.784;9.192;2022-07-25T10:28:49;7.53;;;6.80;;
41139;SDS011;26881;48.784;9.192;2022-07-25T10:34:12;7.53;;;6.82;;
41139;SDS011;26881;48.784;9.192;2022-07-25T10:39:37;7.93;;;7.18;;
41139;SDS011;26881;48.784;9.192;2022-07-25T10:45:01;7.47;;;6.78;;
41139;SDS011;26881;48.784;9.192;2022-07-25T10:50:26;12.43;;;7.28;;
41139;SDS011;26881;48.784;9.192;2022-07-25T11:01:43;8.35;;;6.60;;
41139;SDS011;26881;48.784;9.192;2022-07-25T11:07:12;8.38;;;7.00;;
41139;SDS011;26881;48.784;9.192;2022-07-25T11:12:35;7.28;;;6.30;;
41139;SDS011;26881;48.784;9.192;2022-07-25T11:17:57;8.02;;;6.30;;
41139;SDS011;26881;48.784;9.192;2022-07-25T11:23:22;7.13;;;5.82;;
41139;SDS011;26881;48.784;9.192;2022-07-25T11:28:45;8.15;;;7.20;;
41139;SDS011;26881;48.784;9.192;2022-07-25T11:34:08;6.60;;;5.60;;
41139;SDS011;26881;48.784;9.192;2022-07-25T11:39:31;7.55;;;5.43;;
41139;SDS011;26881;48.784;9.192;2022-07-25T11:44:55;6.55;;;5.60;;
41139;SDS011;26881;48.784;9.192;2022-07-25T11:50:16;7.93;;;5.90;;
41139;SDS011;26881;48.784;9.192;2022-07-25T11:55:49;5.45;;;4.93;;
41139;SDS011;26881;48.784;9.192;2022-07-25T12:01:11;8.45;;;5.53;;
41139;SDS011;26881;48.784;9.192;2022-07-25T12:06:35;5.88;;;5.38;;
41139;SDS011;26881;48.784;9.192;2022-07-25T12:12:00;5.10;;;4.70;;
41139;SDS011;26881;48.784;9.192;2022-07-25T12:17:24;7.03;;;5.25;;
41139;SDS011;26881;48.784;9.192;2022-07-25T12:22:47;5.72;;;5.22;;
41139;SDS011;26881;48.784;9.192;2022-07-25T12:28:10;11.15;;;5.35;;
41139;SDS011;26881;48.784;9.192;2022-07-25T12:33:32;5.70;;;5.20;;
41139;SDS011;26881;48.784;9.192;2022-07-25T12:38:54;5.28;;;4.78;;
41139;SDS011;26881;48.784;9.192;2022-07-25T12:44:16;7.60;;;5.00;;
41139;SDS011;26881;48.784;9.192;2022-07-25T12:49:37;5.10;;;4.60;;
41139;SDS011;26881;48.784;9.192;2022-07-25T12:54:59;5.72;;;5.28;;
41139;SDS011;26881;48.784;9.192;2022-07-25T13:00:22;8.77;;;5.18;;
41139;SDS011;26881;48.784;9.192;2022-07-25T13:05:44;13.77;;;5.90;;
41139;SDS011;26881;48.784;9.192;2022-07-25T13:11:06;7.03;;;5.70;;
41139;SDS011;26881;48.784;9.192;2022-07-25T13:16:28;5.90;;;5.30;;
41139;SDS011;26881;48.784;9.192;2022-07-25T13:21:50;5.88;;;5.30;;
41139;SDS011;26881;48.784;9.192;2022-07-25T13:27:11;5.72;;;4.95;;
41139;SDS011;26881;48.784;9.192;2022-07-25T13:32:33;5.43;;;4.75;;
41139;SDS011;26881;48.784;9.192;2022-07-25T13:37:55;7.75;;;5.55;;
41139;SDS011;26881;48.784;9.192;2022-07-25T13:43:20;12.02;;;5.05;;
41139;SDS011;26881;48.784;9.192;2022-07-25T13:48:41;6.63;;;5.05;;
41139;SDS011;26881;48.784;9.192;2022-07-25T13:54:03;6.57;;;5.00;;
41139;SDS011;26881;48.784;9.192;2022-07-25T13:59:25;4.90;;;4.30;;
41139;SDS011;26881;48.784;9.192;2022-07-25T14:04:47;8.38;;;4.68;;
41139;SDS011;26881;48.784;9.192;2022-07-25T14:10:09;10.23;;;5.15;;
41139;SDS011;26881;48.784;9.192;2022-07-25T14:15:31;9.32;;;5.32;;
41139;SDS011;26881;48.784;9.192;2022-07-25T14:20:53;6.43;;;5.68;;
41139;SDS011;26881;48.784;9.192;2022-07-25T14:26:15;12.13;;;5.85;;
41139;SDS011;26881;48.784;9.192;2022-07-25T14:31:38;7.32;;;5.10;;
41139;SDS011;26881;48.784;9.192;2022-07-25T14:37:01;6.18;;;5.57;;
41139;SDS011;26881;48.784;9.192;2022-07-25T14:42:23;12.07;;;5.85;;
41139;SDS011;26881;48.784;9.192;2022-07-25T14:47:44;6.95;;;6.25;;
41139;SDS011;26881;48.784;9.192;2022-07-25T14:53:06;7.95;;;5.80;;
41139;SDS011;26881;48.784;9.192;2022-07-25T14:58:28;7.18;;;5.63;;
41139;SDS011;26881;48.784;9.192;2022-07-25T15:03:51;8.07;;;6.13;;
41139;SDS011;26881;48.784;9.192;2022-07-25T15:09:13;8.00;;;5.57;;
41139;SDS011;26881;48.784;9.192;2022-07-25T15:14:35;8.35;;;5.70;;
41139;SDS011;26881;48.784;9.192;2022-07-25T15:19:57;6.43;;;5.82;;
41139;SDS011;26881;48.784;9.192;2022-07-25T15:25:19;9.23;;;5.47;;
41139;SDS011;26881;48.784;9.192;2022-07-25T15:31:01;6.85;;;6.15;;
41139;SDS011;26881;48.784;9.192;2022-07-25T15:36:23;8.23;;;5.80;;
41139;SDS011;26881;48.784;9.192;2022-07-25T15:41:50;10.98;;;5.45;;
41139;SDS011;26881;48.784;9.192;2022-07-25T15:47:12;10.48;;;5.60;;
41139;SDS011;26881;48.784;9.192;2022-07-25T15:52:33;9.70;;;5.60;;
41139;SDS011;26881;48.784;9.192;2022-07-25T15:57:56;6.10;;;5.50;;
41139;SDS011;26881;48.784;9.192;2022-07-25T16:03:18;6.07;;;5.57;;
41139;SDS011;26881;48.784;9.192;2022-07-25T16:08:41;9.15;;;5.35;;
41139;SDS011;26881;48.784;9.192;2022-07-25T16:14:03;6.20;;;5.70;;
41139;SDS011;26881;48.784;9.192;2022-07-25T16:19:25;7.32;;;5.88;;
41139;SDS011;26881;48.784;9.192;2022-07-25T16:24:47;10.82;;;6.45;;
41139;SDS011;26881;48.784;9.192;2022-07-25T16:30:09;8.77;;;5.55;;
41139;SDS011;26881;48.784;9.192;2022-07-25T16:35:32;6.05;;;5.40;;
41139;SDS011;26881;48.784;9.192;2022-07-25T16:40:53;6.07;;;5.47;;
41139;SDS011;26881;48.784;9.192;2022-07-25T16:46:15;6.15;;;5.43;;
41139;SDS011;26881;48.784;9.192;2022-07-25T16:51:37;6.40;;;5.60;;
41139;SDS011;26881;48.784;9.192;2022-07-25T16:56:59;8.50;;;5.03;;
41139;SDS011;26881;48.784;9.192;2022-07-25T17:02:21;7.13;;;5.28;;
41139;SDS011;26881;48.784;9.192;2022-07-25T17:07:50;6.85;;;5.32;;
41139;SDS011;26881;48.784;9.192;2022-07-25T17:13:20;9.75;;;5.72;;
41139;SDS011;26881;48.784;9.192;2022-07-25T17:18:42;5.28;;;4.60;;
41139;SDS011;26881;48.784;9.192;2022-07-25T17:24:04;8.13;;;5.00;;
41139;SDS011;26881;48.784;9.192;2022-07-25T17:29:26;6.43;;;4.40;;
41139;SDS011;26881;48.784;9.192;2022-07-25T17:34:48;6.35;;;4.70;;
41139;SDS011;26881;48.784;9.192;2022-07-25T17:40:10;5.55;;;4.65;;
41139;SDS011;26881;48.784;9.192;2022-07-25T17:45:32;6.07;;;4.78;;
41139;SDS011;26881;48.784;9.192;2022-07-25T17:50:54;4.75;;;4.35;;
41139;SDS011;26881;48.784;9.192;2022-07-25T17:56:16;7.15;;;4.65;;
41139;SDS011;26881;48.784;9.192;2022-07-25T18:01:38;8.40;;;4.95;;
41139;SDS011;26881;48.784;9.192;2022-07-25T18:07:00;7.93;;;4.35;;
41139;SDS011;26881;48.784;9.192;2022-07-25T18:12:22;7.95;;;4.70;;
41139;SDS011;26881;48.784;9.192;2022-07-25T18:17:49;7.25;;;4.68;;
41139;SDS011;26881;48.784;9.192;2022-07-25T18:23:13;8.23;;;4.68;;
41139;SDS011;26881;48.784;9.192;2022-07-25T18:28:35;14.23;;;4.40;;
41139;SDS011;26881;48.784;9.192;2022-07-25T18:33:56;14.07;;;9.10;;
41139;SDS011;26881;48.784;9.192;2022-07-25T18:39:18;7.43;;;4.38;;
41139;SDS011;26881;48.784;9.192;2022-07-25T18:44:40;7.93;;;4.65;;
41139;SDS011;26881;48.784;9.192;2022-07-25T18:50:03;10.40;;;4.15;;
41139;SDS011;26881;48.784;9.192;2022-07-25T18:55:26;7.65;;;3.67;;
41139;SDS011;26881;48.784;9.192;2022-07-25T19:00:47;8.90;;;3.60;;
41139;SDS011;26881;48.784;9.192;2022-07-25T19:06:09;9.50;;;3.22;;
41139;SDS011;26881;48.784;9.192;2022-07-25T19:11:32;6.03;;;3.05;;
41139;SDS011;26881;48.784;9.192;2022-07-25T19:17:02;4.10;;;3.00;;
41139;SDS011;26881;48.784;9.192;2022-07-25T19:22:25;7.57;;;3.00;;
41139;SDS011;26881;48.784;9.192;2022-07-25T19:27:47;8.60;;;3.00;;
41139;SDS011;26881;48.784;9.192;2022-07-25T19:33:09;6.20;;;3.20;;
41139;SDS011;26881;48.784;9.192;2022-07-25T19:38:31;9.15;;;2.97;;
41139;SDS011;26881;48.784;9.192;2022-07-25T19:43:53;5.93;;;3.72;;
41139;SDS011;26881;48.784;9.192;2022-07-25T19:49:15;9.38;;;2.85;;
41139;SDS011;26881;48.784;9.192;2022-07-25T19:54:37;8.32;;;2.55;;
41139;SDS011;26881;48.784;9.192;2022-07-25T19:59:59;7.13;;;2.50;;
41139;SDS011;26881;48.784;9.192;2022-07-25T20:05:21;9.05;;;3.03;;
41139;SDS011;26881;48.784;9.192;2022-07-25T20:10:43;6.43;;;2.90;;
41139;SDS011;26881;48.784;9.192;2022-07-25T20:16:05;8.18;;;2.67;;
41139;SDS011;26881;48.784;9.192;2022-07-25T20:21:27;8.70;;;2.55;;
41139;SDS011;26881;48.784;9.192;2022-07-25T20:26:49;4.70;;;2.20;;
41139;SDS011;26881;48.784;9.192;2022-07-25T20:32:11;6.18;;;2.55;;
41139;SDS011;26881;48.784;9.192;2022-07-25T20:37:33;9.27;;;2.50;;
41139;SDS011;26881;48.784;9.192;2022-07-25T20:42:56;8.02;;;3.30;;
41139;SDS011;26881;48.784;9.192;2022-07-25T20:48:18;10.10;;;2.90;;
41139;SDS011;26881;48.784;9.192;2022-07-25T20:53:40;4.65;;;1.90;;
41139;SDS011;26881;48.784;9.192;2022-07-25T20:59:02;9.20;;;2.28;;
41139;SDS011;26881;48.784;9.192;2022-07-25T21:04:24;4.05;;;2.20;;
41139;SDS011;26881;48.784;9.192;2022-07-25T21:09:46;4.75;;;2.47;;
41139;SDS011;26881;48.784;9.192;2022-07-25T21:15:08;2.95;;;1.83;;
41139;SDS011;26881;48.784;9.192;2022-07-25T21:20:30;4.15;;;1.98;;
41139;SDS011;26881;48.784;9.192;2022-07-25T21:25:52;4.85;;;2.40;;
41139;SDS011;26881;48.784;9.192;2022-07-25T21:31:14;7.25;;;2.20;;
41139;SDS011;26881;48.784;9.192;2022-07-25T21:36:38;7.40;;;2.35;;
41139;SDS011;26881;48.784;9.192;2022-07-25T21:42:00;4.88;;;3.00;;
41139;SDS011;26881;48.784;9.192;2022-07-25T21:47:23;9.30;;;2.20;;
41139;SDS011;26881;48.784;9.192;2022-07-25T21:52:45;8.30;;;2.30;;
41139;SDS011;26881;48.784;9.192;2022-07-25T21:58:06;4.95;;;2.13;;
41139;SDS011;26881;48.784;9.192;2022-07-25T22:03:28;4.75;;;1.98;;
41139;SDS011;26881;48.784;9.192;2022-07-25T22:08:50;4.20;;;2.03;;
41139;SDS011;26881;48.784;9.192;2022-07-25T22:14:12;9.00;;;2.47;;
41139;SDS011;26881;48.784;9.192;2022-07-25T22:19:34;5.55;;;1.88;;
41139;SDS011;26881;48.784;9.192;2022-07-25T22:24:56;2.97;;;1.77;;
41139;SDS011;26881;48.784;9.192;2022-07-25T22:30:18;8.90;;;2.15;;
41139;SDS011;26881;48.784;9.192;2022-07-25T22:35:40;4.55;;;1.80;;
41139;SDS011;26881;48.784;9.192;2022-07-25T22:41:02;6.28;;;2.00;;
41139;SDS011;26881;48.784;9.192;2022-07-25T22:46:24;8.73;;;2.08;;
41139;SDS011;26881;48.784;9.192;2022-07-25T22:51:46;2.15;;;1.58;;
41139;SDS011;26881;48.784;9.192;2022-07-25T22:57:07;2.42;;;1.70;;
41139;SDS011;26881;48.784;9.192;2022-07-25T23:02:29;4.30;;;1.80;;
41139;SDS011;26881;48.784;9.192;2022-07-25T23:07:51;6.28;;;2.03;;
41139;SDS011;26881;48.784;9.192;2022-07-25T23:13:13;4.85;;;1.95;;
41139;SDS011;26881;48.784;9.192;2022-07-25T23:18:35;7.63;;;1.83;;
41139;SDS011;26881;48.784;9.192;2022-07-25T23:23:56;7.85;;;2.08;;
41139;SDS011;26881;48.784;9.192;2022-07-25T23:29:20;8.82;;;2.20;;
41139;SDS011;26881;48.784;9.192;2022-07-25T23:34:42;3.45;;;1.90;;
41139;SDS011;26881;48.784;9.192;2022-07-25T23:40:04;3.47;;;2.00;;
41139;SDS011;26881;48.784;9.192;2022-07-25T23:45:27;7.40;;;2.08;;
41139;SDS011;26881;48.784;9.192;2022-07-25T23:50:49;7.43;;;1.92;;
41139;SDS011;26881;48.784;9.192;2022-07-25T23:56:10;4.60;;;1.80;;
